Time;durP1;ratioP1;P1;durP2;ratioP2;P2;SDS_P1;SDS_P2;PMS_P1;PMS_P2;Temp;Humidity;BMP_temperature;BMP_pressure;BME280_temperature;BME280_humidity;BME280_pressure;Samples;Min_cycle;Max_cycle;Signal;HPM_P1;HPM_P2
2023/08/24 00:01:32;;;;;;;2.03;1.83;;;;;;;;;;5073469;28;20201;-70
2023/08/24 00:03:58;;;;;;;2.13;2.00;;;20.00;99.90;;;;;;5073276;28;20201;-70
2023/08/24 00:06:24;;;;;;;1.70;1.60;;;19.70;99.90;;;;;;5072752;28;20411;-70
2023/08/24 00:08:50;;;;;;;2.20;2.10;;;19.70;99.90;;;;;;5073488;28;20172;-71
2023/08/24 00:11:16;;;;;;;1.37;1.27;;;19.60;99.90;;;;;;5073406;28;20877;-70
2023/08/24 00:13:48;;;;;;;2.17;1.97;;;19.60;99.90;;;;;;5073339;28;20180;-71
2023/08/24 00:16:15;;;;;;;1.17;1.07;;;19.60;99.90;;;;;;5071987;28;20655;-71
2023/08/24 00:18:40;;;;;;;3.40;3.00;;;19.70;99.90;;;;;;5073476;28;20406;-70
2023/08/24 00:21:07;;;;;;;4.30;2.13;;;19.70;99.90;;;;;;5073569;28;20446;-71
2023/08/24 00:23:33;;;;;;;1.17;1.07;;;19.70;99.90;;;;;;5073302;28;20200;-71
2023/08/24 00:25:59;;;;;;;1.30;1.20;;;19.70;99.90;;;;;;5073286;28;20429;-70
2023/08/24 00:28:25;;;;;;;1.93;1.83;;;19.60;99.90;;;;;;5073371;28;20450;-70
2023/08/24 00:30:51;;;;;;;1.63;1.53;;;19.60;99.90;;;;;;5073579;28;20474;-71
2023/08/24 00:33:17;;;;;;;2.30;2.10;;;19.60;99.90;;;;;;5073148;28;20435;-70
2023/08/24 00:35:42;;;;;;;1.70;1.60;;;19.50;99.90;;;;;;5073032;28;20169;-71
2023/08/24 00:38:08;;;;;;;1.40;1.30;;;19.40;99.90;;;;;;5073250;28;20242;-71
2023/08/24 00:40:34;;;;;;;1.50;1.13;;;19.70;99.90;;;;;;5073030;28;20541;-72
2023/08/24 00:43:00;;;;;;;1.00;1.00;;;19.40;99.90;;;;;;5072986;28;20189;-71
2023/08/24 00:45:26;;;;;;;1.53;1.43;;;19.60;99.90;;;;;;5072984;28;20883;-71
2023/08/24 00:47:52;;;;;;;3.20;2.13;;;19.40;99.90;;;;;;5073099;28;20411;-71
2023/08/24 00:50:18;;;;;;;1.50;1.07;;;;;;;;;;5073024;28;20186;-70
2023/08/24 00:52:45;;;;;;;1.17;1.13;;;19.50;99.90;;;;;;5072874;28;20426;-71
2023/08/24 00:55:11;;;;;;;2.40;1.50;;;19.20;99.90;;;;;;5072956;28;20410;-71
2023/08/24 00:57:43;;;;;;;1.50;1.40;;;19.40;99.90;;;;;;5073043;28;20950;-71
2023/08/24 01:00:12;;;;;;;1.07;1.07;;;19.40;99.90;;;;;;5072852;28;20562;-71
2023/08/24 01:02:38;;;;;;;4.73;2.43;;;19.00;99.90;;;;;;5072778;28;20450;-70
2023/08/24 01:05:04;;;;;;;1.23;1.00;;;19.30;99.90;;;;;;5072626;28;21089;-71
2023/08/24 01:07:31;;;;;;;1.27;1.17;;;19.40;99.90;;;;;;5073002;28;20417;-71
2023/08/24 01:09:57;;;;;;;2.50;1.87;;;19.40;99.90;;;;;;5072874;28;20920;-70
2023/08/24 01:13:02;;;;;;;1.87;1.77;;;19.30;99.90;;;;;;5072718;28;20432;-71
2023/08/24 01:15:51;;;;;;;1.73;1.53;;;19.60;99.90;;;;;;5072834;28;20332;-71
2023/08/24 01:18:20;;;;;;;2.63;2.43;;;19.10;99.90;;;;;;5074095;28;20418;-71
2023/08/24 01:20:48;;;;;;;2.40;2.17;;;19.10;99.90;;;;;;5076524;28;20509;-71
2023/08/24 01:23:36;;;;;;;1.20;1.20;;;19.20;99.90;;;;;;5076388;28;20442;-71
2023/08/24 01:26:01;;;;;;;1.33;1.30;;;19.20;99.90;;;;;;5076448;28;20402;-70
2023/08/24 01:28:27;;;;;;;2.33;2.23;;;;;;;;;;5076482;28;20785;-71
2023/08/24 01:30:54;;;;;;;0.90;0.90;;;;;;;;;;5076353;28;20237;-71
2023/08/24 01:33:19;;;;;;;1.70;1.60;;;19.20;99.90;;;;;;5076257;28;20457;-70
2023/08/24 01:35:45;;;;;;;1.53;1.00;;;19.30;99.90;;;;;;5076119;28;20887;-71
2023/08/24 01:38:13;;;;;;;2.03;1.80;;;;;;;;;;5076259;28;20175;-70
2023/08/24 01:41:09;;;;;;;1.40;1.30;;;19.60;99.90;;;;;;5076122;28;20501;-70
2023/08/24 01:43:36;;;;;;;1.43;1.33;;;19.30;99.90;;;;;;5076203;28;20445;-70
2023/08/24 01:46:07;;;;;;;1.93;1.83;;;19.30;99.90;;;;;;5075750;28;20403;-70
2023/08/24 01:48:34;;;;;;;1.30;1.27;;;19.00;99.90;;;;;;5075837;28;20398;-71
2023/08/24 01:51:01;;;;;;;2.40;1.03;;;19.20;99.90;;;;;;5075984;28;20423;-71
2023/08/24 01:53:29;;;;;;;1.13;1.03;;;19.20;99.90;;;;;;5075814;28;20444;-72
2023/08/24 01:55:55;;;;;;;1.73;1.27;;;19.60;99.90;;;;;;5075362;28;20407;-74
2023/08/24 01:58:21;;;;;;;3.07;1.37;;;;;;;;;;5075974;28;20468;-72
2023/08/24 02:00:47;;;;;;;1.93;1.73;;;19.20;99.90;;;;;;5075835;28;20268;-72
2023/08/24 02:03:12;;;;;;;2.00;1.87;;;19.60;99.90;;;;;;5075626;28;20549;-72
2023/08/24 02:05:38;;;;;;;1.07;0.97;;;19.80;99.90;;;;;;5075611;28;20176;-70
2023/08/24 02:08:04;;;;;;;1.23;1.20;;;19.80;99.90;;;;;;5075827;28;20173;-72
2023/08/24 02:10:29;;;;;;;6.83;1.73;;;19.80;99.90;;;;;;5075435;28;20540;-72
2023/08/24 02:12:55;;;;;;;1.20;1.10;;;19.50;99.90;;;;;;5075686;28;20407;-72
2023/08/24 02:15:21;;;;;;;3.90;2.63;;;19.20;99.90;;;;;;5075376;28;20229;-71
2023/08/24 02:17:46;;;;;;;1.10;0.80;;;19.50;99.90;;;;;;5075517;28;20177;-71
2023/08/24 02:20:12;;;;;;;1.77;1.67;;;19.60;99.90;;;;;;5075477;28;20166;-71
2023/08/24 02:22:38;;;;;;;1.30;1.20;;;19.50;99.90;;;;;;5075212;28;20193;-72
2023/08/24 02:25:05;;;;;;;1.90;1.80;;;19.40;99.90;;;;;;5075147;28;20188;-71
2023/08/24 02:27:34;;;;;;;1.87;1.77;;;19.50;99.90;;;;;;5075238;28;20456;-72
2023/08/24 02:30:00;;;;;;;2.73;2.53;;;19.50;99.90;;;;;;5074858;28;20403;-70
2023/08/24 02:32:26;;;;;;;1.70;1.60;;;19.40;99.90;;;;;;5075085;28;20645;-70
2023/08/24 02:34:51;;;;;;;1.57;1.30;;;19.40;99.90;;;;;;5074934;28;20482;-71
2023/08/24 02:37:17;;;;;;;2.30;1.53;;;19.40;99.90;;;;;;5075186;28;20230;-71
2023/08/24 02:39:42;;;;;;;2.37;2.23;;;19.60;99.90;;;;;;5075073;28;20219;-72
2023/08/24 02:42:08;;;;;;;2.60;2.37;;;;;;;;;;5074795;28;20238;-72
2023/08/24 02:44:34;;;;;;;2.30;2.03;;;;;;;;;;5074784;28;20177;-71
2023/08/24 02:47:00;;;;;;;2.53;2.00;;;;;;;;;;5075085;28;20771;-71
2023/08/24 02:49:26;;;;;;;2.30;2.03;;;19.70;99.90;;;;;;5074696;28;20430;-71
2023/08/24 02:51:52;;;;;;;2.77;2.57;;;19.70;99.90;;;;;;5074850;28;20419;-71
2023/08/24 02:54:17;;;;;;;0.97;0.97;;;19.80;99.90;;;;;;5074459;28;20682;-72
2023/08/24 02:56:43;;;;;;;1.87;1.77;;;19.90;99.90;;;;;;5074989;28;20180;-70
2023/08/24 02:59:08;;;;;;;5.80;4.97;;;19.80;99.90;;;;;;5074565;28;20180;-72
2023/08/24 03:01:38;;;;;;;2.90;2.43;;;19.80;99.90;;;;;;5074577;28;20196;-71
2023/08/24 03:04:05;;;;;;;3.63;3.10;;;19.80;99.90;;;;;;5074350;28;20672;-73
2023/08/24 03:06:30;;;;;;;1.37;1.27;;;19.80;99.90;;;;;;5074626;28;20399;-72
2023/08/24 03:08:56;;;;;;;3.10;2.87;;;19.80;99.90;;;;;;5073801;28;20415;-71
2023/08/24 03:11:22;;;;;;;1.70;1.60;;;;;;;;;;5074440;28;20192;-71
2023/08/24 03:13:48;;;;;;;3.00;2.80;;;20.00;99.90;;;;;;5074230;28;20462;-74
2023/08/24 03:16:14;;;;;;;3.47;3.17;;;20.00;99.90;;;;;;5074276;28;20404;-72
2023/08/24 03:18:40;;;;;;;6.87;2.00;;;20.10;99.90;;;;;;5074178;28;20215;-72
2023/08/24 03:21:06;;;;;;;2.67;1.77;;;19.90;99.90;;;;;;5074078;28;20726;-72
2023/08/24 03:23:31;;;;;;;4.40;3.20;;;20.20;99.90;;;;;;5074022;28;20459;-72
2023/08/24 03:25:58;;;;;;;2.90;2.80;;;20.20;99.90;;;;;;5074070;28;20414;-71
2023/08/24 03:28:23;;;;;;;1.93;1.83;;;20.30;99.90;;;;;;5074329;28;20181;-72
2023/08/24 03:30:51;;;;;;;4.90;2.00;;;20.20;99.90;;;;;;5074076;28;20441;-72
2023/08/24 03:33:19;;;;;;;1.57;1.40;;;;;;;;;;5073968;28;20235;-72
2023/08/24 03:35:44;;;;;;;2.83;2.63;;;20.10;99.90;;;;;;5073654;28;20844;-72
2023/08/24 03:38:10;;;;;;;2.00;1.90;;;20.00;99.90;;;;;;5074009;28;20439;-71
2023/08/24 03:40:36;;;;;;;2.77;1.60;;;19.60;99.90;;;;;;5073794;28;20211;-71
2023/08/24 03:43:03;;;;;;;3.33;3.20;;;19.90;99.90;;;;;;5073795;28;20189;-71
2023/08/24 03:45:29;;;;;;;3.40;3.10;;;;;;;;;;5073596;28;20269;-71
2023/08/24 03:47:55;;;;;;;2.43;2.33;;;19.80;99.90;;;;;;5073665;28;20455;-71
2023/08/24 03:50:22;;;;;;;4.50;2.80;;;;;;;;;;5073466;28;20783;-72
2023/08/24 03:52:49;;;;;;;4.90;4.53;;;19.90;99.90;;;;;;5073555;28;20463;-72
2023/08/24 03:55:15;;;;;;;3.73;1.30;;;19.90;99.90;;;;;;5073368;28;20476;-72
2023/08/24 03:57:41;;;;;;;3.63;3.10;;;19.90;99.90;;;;;;5073617;28;20408;-71
2023/08/24 04:00:10;;;;;;;2.00;1.90;;;19.90;99.90;;;;;;5073684;28;20181;-71
2023/08/24 04:02:37;;;;;;;3.03;2.83;;;;;;;;;;5073139;28;20204;-71
2023/08/24 04:05:03;;;;;;;2.50;2.30;;;19.60;99.90;;;;;;5073440;28;20461;-71
2023/08/24 04:07:29;;;;;;;9.10;1.90;;;19.40;99.90;;;;;;5073713;28;20407;-70
2023/08/24 04:09:55;;;;;;;1.63;1.53;;;19.50;99.90;;;;;;5073524;28;20490;-72
2023/08/24 04:12:21;;;;;;;2.10;1.90;;;;;;;;;;5073511;28;20613;-72
2023/08/24 04:14:47;;;;;;;1.70;1.60;;;;;;;;;;5073174;28;20184;-74
2023/08/24 04:17:13;;;;;;;3.10;2.90;;;19.40;99.90;;;;;;5073331;28;20403;-71
2023/08/24 04:19:39;;;;;;;2.07;1.97;;;19.90;99.90;;;;;;5073414;28;20406;-72
2023/08/24 04:22:05;;;;;;;2.23;2.13;;;19.40;99.90;;;;;;5071852;28;20440;-73
2023/08/24 04:24:31;;;;;;;2.83;2.70;;;19.70;99.90;;;;;;5073200;28;20218;-72
2023/08/24 04:26:56;;;;;;;2.10;1.60;;;19.80;99.90;;;;;;5073370;28;20400;-72
2023/08/24 04:29:22;;;;;;;2.30;2.20;;;;;;;;;;5073148;28;20322;-72
2023/08/24 04:31:48;;;;;;;2.80;2.63;;;20.10;99.90;;;;;;5073118;28;20189;-71
2023/08/24 04:34:13;;;;;;;2.47;1.67;;;19.70;99.90;;;;;;5073023;28;20905;-72
2023/08/24 04:36:39;;;;;;;2.70;2.50;;;19.90;99.90;;;;;;5073215;28;20203;-71
2023/08/24 04:39:05;;;;;;;2.50;2.40;;;19.90;99.90;;;;;;5073128;28;20170;-70
2023/08/24 04:41:30;;;;;;;2.67;2.43;;;19.70;99.90;;;;;;5073047;28;20196;-72
2023/08/24 04:43:56;;;;;;;2.03;1.93;;;19.60;99.90;;;;;;5072945;28;20580;-71
2023/08/24 04:46:22;;;;;;;1.20;1.10;;;;;;;;;;5073107;28;20166;-72
2023/08/24 04:48:48;;;;;;;2.03;1.90;;;19.80;99.90;;;;;;5072783;28;20166;-72
2023/08/24 04:51:13;;;;;;;2.53;2.33;;;19.80;99.90;;;;;;5073097;28;20792;-71
2023/08/24 04:53:39;;;;;;;5.30;3.80;;;19.80;99.90;;;;;;5075065;28;20844;-72
2023/08/24 04:56:05;;;;;;;1.73;1.33;;;;;;;;;;5077031;28;20618;-74
2023/08/24 04:58:34;;;;;;;2.50;2.17;;;19.80;99.90;;;;;;5076867;28;20181;-72
2023/08/24 05:00:59;;;;;;;2.70;2.47;;;19.60;99.90;;;;;;5076977;28;20431;-71
2023/08/24 05:03:25;;;;;;;2.63;2.03;;;20.00;99.90;;;;;;5076898;28;20451;-72
2023/08/24 05:05:50;;;;;;;3.73;3.33;;;20.20;99.90;;;;;;5076740;28;20162;-70
2023/08/24 05:08:16;;;;;;;1.93;1.70;;;19.80;99.90;;;;;;5076831;28;20162;-72
2023/08/24 05:10:42;;;;;;;2.00;1.90;;;20.10;99.90;;;;;;5076781;28;20162;-72
2023/08/24 05:13:07;;;;;;;3.07;2.77;;;19.80;99.90;;;;;;5076850;28;20169;-71
2023/08/24 05:15:33;;;;;;;3.20;3.00;;;;;;;;;;5076409;28;20263;-72
2023/08/24 05:17:59;;;;;;;3.17;2.23;;;20.30;99.90;;;;;;5076560;28;20633;-72
2023/08/24 05:20:25;;;;;;;4.27;1.97;;;20.00;99.90;;;;;;5076713;28;20408;-72
2023/08/24 05:22:51;;;;;;;2.90;2.70;;;20.10;99.90;;;;;;5076300;28;20202;-72
2023/08/24 05:25:17;;;;;;;3.47;3.17;;;20.10;99.90;;;;;;5076299;28;20561;-72
2023/08/24 05:27:44;;;;;;;3.80;3.60;;;20.10;99.90;;;;;;5076265;28;20907;-72
2023/08/24 05:30:10;;;;;;;2.30;2.13;;;20.60;99.90;;;;;;5076378;28;20503;-71
2023/08/24 05:32:38;;;;;;;3.27;2.87;;;20.40;99.90;;;;;;5076213;28;20432;-72
2023/08/24 05:35:05;;;;;;;2.67;2.37;;;20.50;99.90;;;;;;5076036;28;20769;-72
2023/08/24 05:37:31;;;;;;;3.73;3.40;;;;;;;;;;5076293;28;20497;-71
2023/08/24 05:39:57;;;;;;;2.00;1.77;;;21.30;99.90;;;;;;5076255;28;20422;-72
2023/08/24 05:42:23;;;;;;;2.60;1.50;;;;;;;;;;5075922;28;20921;-72
2023/08/24 05:44:49;;;;;;;2.40;1.80;;;22.50;99.90;;;;;;5075869;28;20166;-72
2023/08/24 05:47:15;;;;;;;5.40;2.13;;;;;;;;;;5076168;28;20407;-72
2023/08/24 05:49:41;;;;;;;5.10;3.00;;;;;;;;;;5075844;28;20501;-71
2023/08/24 05:52:07;;;;;;;1.13;0.90;;;;;;;;;;5075787;28;20935;-72
2023/08/24 05:54:33;;;;;;;1.63;1.53;;;24.00;99.90;;;;;;5075677;28;20371;-72
2023/08/24 05:57:01;;;;;;;1.60;1.17;;;24.30;99.90;;;;;;5075887;28;20404;-73
2023/08/24 05:59:27;;;;;;;1.77;1.67;;;24.50;99.20;;;;;;5075828;28;20177;-73
2023/08/24 06:01:53;;;;;;;1.93;1.80;;;;;;;;;;5075927;28;20741;-72
2023/08/24 06:04:19;;;;;;;2.43;2.23;;;;;;;;;;5074450;28;20664;-72
2023/08/24 06:06:45;;;;;;;1.87;1.77;;;23.90;99.50;;;;;;5075693;28;20367;-72
2023/08/24 06:09:11;;;;;;;0.90;0.90;;;23.70;99.90;;;;;;5075559;28;20477;-72
2023/08/24 06:11:36;;;;;;;2.10;1.90;;;23.60;99.90;;;;;;5075508;28;20197;-72
2023/08/24 06:14:02;;;;;;;1.90;1.80;;;23.50;99.90;;;;;;5075439;28;20170;-73
2023/08/24 06:16:28;;;;;;;2.03;1.90;;;23.40;99.90;;;;;;5075837;28;20200;-72
2023/08/24 06:18:54;;;;;;;2.33;1.93;;;23.30;99.90;;;;;;5075361;28;20252;-72
2023/08/24 06:21:20;;;;;;;1.40;1.30;;;23.20;99.90;;;;;;5075466;28;20453;-72
2023/08/24 06:23:47;;;;;;;1.77;1.67;;;23.20;99.90;;;;;;5075232;28;20205;-73
2023/08/24 06:26:13;;;;;;;1.97;1.80;;;23.00;99.90;;;;;;5075171;28;20180;-72
2023/08/24 06:28:38;;;;;;;1.90;1.80;;;23.10;99.90;;;;;;5075265;28;20923;-73
2023/08/24 06:31:04;;;;;;;1.83;1.73;;;23.20;99.90;;;;;;5075143;28;20482;-72
2023/08/24 06:33:34;;;;;;;2.37;2.27;;;23.40;99.90;;;;;;5075307;28;20169;-72
2023/08/24 06:36:01;;;;;;;1.70;1.60;;;23.60;99.90;;;;;;5075121;28;20176;-73
2023/08/24 06:38:27;;;;;;;1.57;1.47;;;23.80;99.90;;;;;;5075113;28;20385;-72
2023/08/24 06:40:52;;;;;;;1.90;1.80;;;24.00;99.90;;;;;;5075111;28;20509;-73
2023/08/24 06:43:18;;;;;;;4.40;2.37;;;24.10;99.90;;;;;;5075233;28;20564;-72
2023/08/24 06:45:47;;;;;;;1.60;1.50;;;24.20;99.90;;;;;;5074931;28;20162;-72
2023/08/24 06:48:12;;;;;;;2.27;2.17;;;24.20;99.90;;;;;;5074865;28;20374;-73
2023/08/24 06:50:38;;;;;;;3.30;2.87;;;24.20;99.90;;;;;;5074849;28;20390;-72
2023/08/24 06:53:04;;;;;;;2.90;2.47;;;24.20;99.90;;;;;;5074720;28;20177;-73
2023/08/24 06:55:30;;;;;;;2.83;2.63;;;24.30;99.90;;;;;;5074655;28;20227;-72
2023/08/24 06:57:56;;;;;;;2.13;1.90;;;24.50;99.90;;;;;;5074732;28;20396;-72
2023/08/24 07:00:22;;;;;;;3.00;2.43;;;24.90;99.90;;;;;;5074655;28;20183;-72
2023/08/24 07:02:49;;;;;;;1.80;1.70;;;26.10;99.90;;;;;;5074427;28;20193;-72
2023/08/24 07:05:18;;;;;;;3.27;2.00;;;25.90;99.50;;;;;;5074389;28;20458;-72
2023/08/24 07:07:45;;;;;;;3.30;3.10;;;26.50;98.30;;;;;;5074561;28;20400;-72
2023/08/24 07:10:11;;;;;;;2.00;1.80;;;27.00;97.50;;;;;;5074785;28;20428;-72
2023/08/24 07:12:37;;;;;;;2.80;2.60;;;27.50;96.40;;;;;;5074445;28;20953;-73
2023/08/24 07:15:03;;;;;;;3.03;2.33;;;27.70;95.70;;;;;;5074137;28;20218;-72
2023/08/24 07:17:29;;;;;;;2.17;2.07;;;27.80;94.80;;;;;;5074067;28;20404;-73
2023/08/24 07:19:55;;;;;;;2.73;2.53;;;27.70;94.20;;;;;;5074307;28;20412;-74
2023/08/24 07:22:20;;;;;;;2.00;1.80;;;27.60;94.30;;;;;;5074152;28;20212;-72
2023/08/24 07:24:46;;;;;;;2.27;2.07;;;27.40;95.10;;;;;;5074094;28;20644;-72
2023/08/24 07:27:12;;;;;;;1.50;1.40;;;;;;;;;;5074155;28;20169;-73
2023/08/24 07:29:38;;;;;;;1.70;1.60;;;27.40;95.80;;;;;;5074284;28;20189;-73
2023/08/24 07:32:03;;;;;;;2.27;2.10;;;27.80;95.90;;;;;;5073913;28;20446;-72
2023/08/24 07:34:29;;;;;;;2.03;1.93;;;;;;;;;;5073849;28;20173;-73
2023/08/24 07:36:55;;;;;;;2.17;2.03;;;30.10;92.80;;;;;;5074108;28;20177;-74
2023/08/24 07:39:21;;;;;;;3.77;2.63;;;31.60;90.60;;;;;;5073757;28;20408;-73
2023/08/24 07:41:47;;;;;;;2.50;2.03;;;33.20;85.00;;;;;;5073692;28;20596;-72
2023/08/24 07:44:12;;;;;;;3.40;2.60;;;34.80;79.30;;;;;;5073471;28;20226;-73
2023/08/24 07:46:41;;;;;;;2.50;1.60;;;37.70;66.40;;;;;;5073887;28;20165;-73
2023/08/24 07:49:06;;;;;;;3.23;2.77;;;37.70;67.10;;;;;;5073580;28;20177;-74
2023/08/24 07:51:35;;;;;;;2.57;2.43;;;39.00;60.20;;;;;;5073966;28;20423;-73
2023/08/24 07:54:01;;;;;;;2.60;1.97;;;40.10;57.70;;;;;;5073781;28;20172;-73
2023/08/24 07:56:28;;;;;;;2.60;1.90;;;41.00;54.40;;;;;;5073824;28;20431;-73
2023/08/24 07:58:54;;;;;;;1.70;1.57;;;41.80;51.40;;;;;;5073594;28;20729;-72
2023/08/24 08:01:19;;;;;;;2.27;2.00;;;42.50;50.10;;;;;;5073643;28;20231;-72
2023/08/24 08:03:45;;;;;;;1.60;1.43;;;42.90;48.20;;;;;;5073610;28;20204;-71
2023/08/24 08:06:12;;;;;;;2.13;1.93;;;43.20;46.60;;;;;;5073399;28;20226;-72
2023/08/24 08:08:37;;;;;;;5.23;1.97;;;43.40;44.90;;;;;;5073507;28;20576;-72
2023/08/24 08:11:03;;;;;;;1.90;1.67;;;43.40;43.80;;;;;;5073463;28;20427;-71
2023/08/24 08:13:29;;;;;;;1.40;1.30;;;43.60;43.00;;;;;;5073715;28;20169;-72
2023/08/24 08:16:04;;;;;;;2.07;1.87;;;43.80;42.90;;;;;;5073362;28;20243;-72
2023/08/24 08:18:31;;;;;;;1.70;1.60;;;44.20;42.30;;;;;;5073470;28;20407;-73
2023/08/24 08:20:57;;;;;;;2.37;2.17;;;;;;;;;;5073185;28;20447;-73
2023/08/24 08:23:22;;;;;;;2.03;1.93;;;45.00;40.80;;;;;;5073282;28;20407;-71
2023/08/24 08:25:48;;;;;;;2.10;1.97;;;45.20;39.20;;;;;;5073286;28;20165;-72
2023/08/24 08:28:14;;;;;;;2.00;1.80;;;45.40;38.70;;;;;;5072578;28;20169;-71
2023/08/24 08:30:39;;;;;;;3.37;2.30;;;45.80;56.50;;;;;;5073369;28;20543;-72
2023/08/24 08:33:05;;;;;;;1.80;1.70;;;;;;;;;;5073130;28;20207;-72
2023/08/24 08:35:31;;;;;;;1.73;1.63;;;45.90;36.40;;;;;;5073000;28;20165;-72
2023/08/24 08:37:57;;;;;;;2.33;2.13;;;45.90;37.20;;;;;;5073244;28;20161;-72
2023/08/24 08:40:29;;;;;;;2.33;2.13;;;45.90;35.70;;;;;;5073377;28;20625;-72
2023/08/24 08:42:58;;;;;;;2.17;2.07;;;45.90;36.00;;;;;;5073326;28;20232;-71
2023/08/24 08:45:28;;;;;;;2.07;1.90;;;45.60;35.70;;;;;;5072926;28;20184;-72
2023/08/24 08:48:01;;;;;;;1.47;1.37;;;45.40;36.00;;;;;;5073601;28;20807;-72
2023/08/24 08:50:27;;;;;;;1.40;1.30;;;45.10;35.50;;;;;;5073211;28;20478;-71
2023/08/24 08:52:53;;;;;;;3.40;3.10;;;45.10;35.80;;;;;;5072823;28;20813;-71
2023/08/24 08:55:19;;;;;;;2.23;2.03;;;45.30;36.10;;;;;;5072884;28;20403;-72
2023/08/24 08:57:49;;;;;;;2.13;2.00;;;45.50;35.80;;;;;;5073109;28;20255;-72
2023/08/24 09:00:16;;;;;;;2.03;1.83;;;45.70;36.90;;;;;;5073611;28;20161;-72
2023/08/24 09:02:47;;;;;;;1.95;1.65;;;46.00;36.30;;;;;;5072874;28;20285;-72
2023/08/24 09:05:13;;;;;;;2.03;1.90;;;46.40;35.10;;;;;;5072837;28;20177;-72
2023/08/24 09:07:42;;;;;;;1.80;1.55;;;46.20;32.80;;;;;;5072999;28;20203;-71
2023/08/24 09:10:08;;;;;;;3.53;2.33;;;45.80;33.20;;;;;;5073082;28;20185;-72
2023/08/24 09:12:34;;;;;;;2.73;2.53;;;45.50;34.70;;;;;;5072675;28;20192;-72
2023/08/24 09:15:04;;;;;;;1.83;1.73;;;45.40;35.30;;;;;;5072705;28;20172;-71
2023/08/24 09:17:29;;;;;;;1.37;1.30;;;45.40;35.70;;;;;;5072866;28;20161;-72
2023/08/24 09:20:00;;;;;;;2.43;1.60;;;45.70;33.10;;;;;;5072812;28;20173;-72
2023/08/24 09:22:26;;;;;;;2.80;1.53;;;45.60;33.50;;;;;;5072704;28;20185;-72
2023/08/24 09:24:52;;;;;;;1.97;1.87;;;;;;;;;;5072598;28;20655;-71
2023/08/24 09:27:19;;;;;;;2.10;2.00;;;45.20;34.00;;;;;;5072915;28;20574;-72
2023/08/24 09:29:50;;;;;;;1.83;1.50;;;45.20;34.50;;;;;;5072965;28;20804;-72
2023/08/24 09:32:22;;;;;;;5.50;1.77;;;45.00;33.80;;;;;;5072742;28;20423;-72
2023/08/24 09:34:47;;;;;;;1.60;1.50;;;44.90;33.80;;;;;;5072675;28;20403;-73
2023/08/24 09:37:15;;;;;;;3.13;2.10;;;44.70;34.10;;;;;;5072829;28;20405;-72
2023/08/24 09:39:41;;;;;;;2.90;1.70;;;;;;;;;;5074462;28;20214;-71
2023/08/24 09:42:07;;;;;;;2.27;1.90;;;;;;;;;;5076294;28;20430;-72
2023/08/24 09:44:32;;;;;;;7.10;1.77;;;43.90;35.20;;;;;;5075872;28;20400;-71
2023/08/24 09:46:59;;;;;;;5.83;2.00;;;43.20;36.40;;;;;;5076240;28;20173;-72
2023/08/24 09:49:26;;;;;;;7.40;1.93;;;41.90;36.70;;;;;;5075879;28;20181;-72
2023/08/24 09:51:57;;;;;;;2.40;1.60;;;40.80;38.70;;;;;;5076048;28;20480;-71
2023/08/24 09:54:27;;;;;;;3.43;2.00;;;40.60;39.50;;;;;;5075856;28;20451;-72
2023/08/24 09:56:56;;;;;;;2.03;1.80;;;40.70;38.60;;;;;;5075910;28;20462;-72
2023/08/24 09:59:24;;;;;;;4.10;1.80;;;40.70;39.20;;;;;;5075918;28;20403;-72
2023/08/24 10:01:51;;;;;;;2.47;1.90;;;40.70;39.00;;;;;;5075590;28;20423;-72
2023/08/24 10:04:23;;;;;;;2.60;2.40;;;40.60;39.40;;;;;;5075518;28;20934;-71
2023/08/24 10:06:55;;;;;;;2.53;2.33;;;40.10;40.00;;;;;;5076027;28;20404;-72
2023/08/24 10:09:33;;;;;;;1.90;1.70;;;39.80;41.50;;;;;;5075649;28;20755;-72
2023/08/24 10:12:02;;;;;;;3.17;1.70;;;39.40;41.20;;;;;;5075724;28;20763;-72
2023/08/24 10:14:35;;;;;;;6.20;1.80;;;39.10;41.00;;;;;;5075238;28;20459;-72
2023/08/24 10:17:02;;;;;;;4.53;2.70;;;38.60;41.30;;;;;;5075676;28;20457;-71
2023/08/24 10:19:29;;;;;;;3.10;1.80;;;38.50;42.40;;;;;;5075488;28;20403;-72
2023/08/24 10:21:57;;;;;;;1.40;1.30;;;38.30;42.30;;;;;;5075335;28;20412;-71
2023/08/24 10:24:23;;;;;;;3.20;2.27;;;37.90;42.10;;;;;;5075178;28;20446;-71
2023/08/24 10:26:50;;;;;;;2.10;1.90;;;37.20;42.80;;;;;;5075439;28;20404;-71
2023/08/24 10:29:17;;;;;;;3.27;1.80;;;37.20;43.30;;;;;;5075536;28;20792;-71
2023/08/24 10:31:43;;;;;;;1.50;1.40;;;36.70;44.30;;;;;;5075285;28;20435;-71
2023/08/24 10:34:10;;;;;;;4.40;2.13;;;36.40;45.30;;;;;;5074854;28;20455;-72
2023/08/24 10:36:39;;;;;;;2.83;2.17;;;36.40;44.70;;;;;;5075295;28;20399;-71
2023/08/24 10:39:06;;;;;;;1.80;1.70;;;36.60;44.60;;;;;;5075259;28;20400;-72
2023/08/24 10:41:48;;;;;;;2.50;1.87;;;36.60;44.30;;;;;;5074980;28;20519;-71
2023/08/24 10:44:22;;;;;;;4.37;1.93;;;36.00;45.70;;;;;;5074771;28;20411;-71
2023/08/24 10:47:18;;;;;;;2.30;1.90;;;36.00;46.20;;;;;;5075153;28;20403;-72
2023/08/24 10:50:03;;;;;;;2.70;1.70;;;35.90;46.20;;;;;;5074671;28;20844;-71
2023/08/24 10:52:35;;;;;;;3.00;1.53;;;35.90;45.80;;;;;;5074179;28;20423;-71
2023/08/24 10:55:03;;;;;;;2.07;1.70;;;35.50;45.70;;;;;;5074607;28;20412;-72
2023/08/24 10:57:39;;;;;;;2.00;1.90;;;35.50;46.20;;;;;;5074920;28;20428;-72
2023/08/24 11:00:10;;;;;;;2.17;2.00;;;35.30;46.70;;;;;;5074948;28;20921;-71
2023/08/24 11:02:50;;;;;;;1.50;1.20;;;35.30;47.90;;;;;;5074516;28;20428;-71
2023/08/24 11:05:24;;;;;;;2.20;2.00;;;35.30;48.00;;;;;;5074364;28;20441;-71
2023/08/24 11:07:53;;;;;;;3.73;1.90;;;35.00;48.90;;;;;;5074521;28;20812;-72
2023/08/24 11:10:21;;;;;;;1.50;1.40;;;34.80;47.40;;;;;;5074546;28;20503;-71
2023/08/24 11:13:09;;;;;;;2.20;1.97;;;34.50;47.60;;;;;;5074231;28;20490;-72
2023/08/24 11:15:40;;;;;;;2.40;1.50;;;34.30;49.30;;;;;;5074358;28;20813;-71
2023/08/24 11:18:19;;;;;;;1.63;1.53;;;34.20;50.30;;;;;;5074274;28;20837;-72
2023/08/24 11:20:45;;;;;;;1.53;1.43;;;33.80;75.00;;;;;;5074430;28;20848;-70
2023/08/24 11:23:12;;;;;;;2.17;1.67;;;34.00;49.20;;;;;;5074152;28;20964;-71
2023/08/24 11:25:38;;;;;;;2.50;1.70;;;;;;;;;;5073888;28;20548;-72
2023/08/24 11:28:04;;;;;;;1.70;1.40;;;33.90;48.90;;;;;;5074068;28;20415;-71
2023/08/24 11:30:32;;;;;;;3.20;1.90;;;34.10;48.90;;;;;;5074019;28;20832;-72
2023/08/24 11:32:58;;;;;;;2.10;1.50;;;;;;;;;;5074262;28;20861;-71
2023/08/24 11:35:24;;;;;;;2.47;1.80;;;34.20;52.30;;;;;;5074032;28;20415;-71
2023/08/24 11:37:53;;;;;;;5.60;1.97;;;34.20;52.00;;;;;;5074033;28;20407;-71
2023/08/24 11:40:28;;;;;;;1.60;1.40;;;34.30;52.50;;;;;;5074076;28;20192;-70
2023/08/24 11:42:57;;;;;;;2.90;1.57;;;33.80;49.70;;;;;;5073955;28;20960;-71
2023/08/24 11:45:23;;;;;;;1.73;1.60;;;33.90;52.10;;;;;;5073767;28;20404;-71
2023/08/24 11:47:50;;;;;;;4.13;2.00;;;34.00;49.80;;;;;;5073835;28;20419;-71
2023/08/24 11:50:17;;;;;;;2.77;1.17;;;34.00;49.60;;;;;;5073562;28;20427;-71
2023/08/24 11:52:43;;;;;;;2.20;1.50;;;;;;;;;;5073619;28;20459;-72
2023/08/24 11:55:09;;;;;;;3.23;1.63;;;34.40;47.20;;;;;;5073537;28;20406;-73
2023/08/24 11:57:36;;;;;;;1.30;1.20;;;34.50;48.00;;;;;;5073672;28;20404;-74
2023/08/24 12:00:04;;;;;;;3.40;3.10;;;34.50;47.60;;;;;;5073902;28;20789;-74
2023/08/24 12:02:30;;;;;;;1.93;1.83;;;;;;;;;;5073392;28;20473;-72
2023/08/24 12:04:57;;;;;;;2.00;1.80;;;34.40;45.80;;;;;;5073362;28;20408;-74
2023/08/24 12:07:22;;;;;;;2.10;1.90;;;34.40;46.20;;;;;;5073644;28;20404;-73
2023/08/24 12:09:52;;;;;;;2.70;1.63;;;34.30;49.00;;;;;;5073472;28;20479;-73
2023/08/24 12:12:23;;;;;;;2.03;1.80;;;;;;;;;;5073415;28;20278;-73
2023/08/24 12:14:49;;;;;;;4.87;1.70;;;34.20;46.70;;;;;;5073411;28;20420;-73
2023/08/24 12:17:16;;;;;;;2.10;2.00;;;34.20;47.50;;;;;;5073681;28;20404;-73
2023/08/24 12:20:01;;;;;;;2.60;1.93;;;34.20;47.00;;;;;;5073551;28;20400;-74
2023/08/24 12:22:28;;;;;;;1.90;1.80;;;34.10;49.00;;;;;;5073519;28;20420;-73
2023/08/24 12:24:53;;;;;;;3.60;1.90;;;34.20;48.60;;;;;;5073183;28;20396;-72
2023/08/24 12:27:23;;;;;;;1.67;1.53;;;34.00;48.50;;;;;;5073361;28;20391;-73
2023/08/24 12:29:49;;;;;;;1.77;1.40;;;33.90;50.20;;;;;;5073333;28;20166;-74
2023/08/24 12:32:19;;;;;;;3.47;1.43;;;33.80;47.30;;;;;;5073302;28;20426;-74
2023/08/24 12:34:45;;;;;;;2.10;1.70;;;33.80;47.30;;;;;;5072964;28;21025;-74
2023/08/24 12:37:12;;;;;;;2.07;1.30;;;33.90;48.90;;;;;;5073255;28;20400;-73
2023/08/24 12:39:39;;;;;;;1.37;1.27;;;33.80;45.30;;;;;;5073273;28;20404;-73
2023/08/24 12:42:06;;;;;;;7.97;1.90;;;33.70;47.50;;;;;;5073361;28;21052;-73
2023/08/24 12:44:31;;;;;;;1.73;1.27;;;33.70;45.80;;;;;;5073138;28;20490;-73
2023/08/24 12:46:58;;;;;;;5.60;1.63;;;33.70;48.30;;;;;;5073284;28;20431;-73
2023/08/24 12:49:23;;;;;;;2.60;1.63;;;33.70;47.70;;;;;;5073100;28;20186;-73
2023/08/24 12:51:49;;;;;;;2.53;1.30;;;33.70;46.00;;;;;;5073067;28;20788;-74
2023/08/24 12:54:14;;;;;;;2.57;1.57;;;33.70;45.10;;;;;;5072842;28;20212;-73
2023/08/24 12:56:40;;;;;;;1.73;1.00;;;33.70;46.40;;;;;;5073146;28;20714;-73
2023/08/24 12:59:07;;;;;;;2.33;1.10;;;33.60;47.70;;;;;;5073114;28;20665;-74
2023/08/24 13:01:32;;;;;;;2.30;2.17;;;33.50;47.60;;;;;;5072904;28;20672;-74